Gran Canaria Sur, Spain
Current Conditions -  °F | °C
As of 6:30 AM on Monday 24 Nov 2014 (Local Time) from GCLP Reporting Station
Broken Clouds Broken Clouds  
Wind Chill: 68°   Ceiling: 5000
Heat Index: 68°   Visibility: 6mi
Dew Point: 61°   Wind: 14mph
Humidity: 78%   Direction: 360°N
Pressure: 30.12"   Gusts: NA
Location:  28°N, 15.6°W
Report Text: GCLP 240630Z 36012KT 9999 FEW025 BKN050 20/16 Q1020 NOSIG
Loading
Personal Weather Stations






























Interactive Weather Map New forecast layout! Learn more

10-Day Weather Forecast

Advertisements
Track Severe Weather on mobile